createdAt,value
2022-08-20T00:01:09.941Z,78.22
2022-08-20T00:03:53.209Z,80.35
2022-08-20T00:06:30.139Z,80.99
2022-08-20T00:09:04.861Z,80.10
2022-08-20T00:11:41.820Z,79.90
2022-08-20T00:14:17.711Z,80.09
2022-08-20T00:16:54.927Z,80.58
2022-08-20T00:19:35.320Z,79.92
2022-08-20T00:22:09.826Z,78.88
2022-08-20T00:24:44.760Z,78.87
2022-08-20T00:27:18.840Z,79.42
2022-08-20T00:29:55.379Z,79.16
2022-08-20T00:32:29.698Z,79.69
2022-08-20T00:35:04.289Z,79.17
2022-08-20T00:37:38.487Z,77.79
2022-08-20T00:40:22.211Z,76.94
2022-08-20T00:43:02.536Z,75.70
2022-08-20T00:45:38.304Z,75.12
2022-08-20T00:48:12.451Z,75.27
2022-08-20T00:50:46.923Z,75.33
2022-08-20T00:53:23.499Z,75.61
2022-08-20T00:55:58.358Z,74.47
2022-08-20T00:58:33.364Z,76.51
2022-08-20T01:01:10.753Z,76.98
2022-08-20T02:59:36.878Z,76.93
2022-08-20T07:05:16.456Z,83.46
2022-08-20T07:07:51.216Z,83.51
2022-08-20T07:10:26.122Z,82.49
2022-08-20T07:13:00.531Z,82.41
2022-08-20T07:15:34.820Z,81.72
2022-08-20T07:18:12.367Z,81.99
2022-08-20T07:20:47.959Z,80.87
2022-08-20T07:23:22.407Z,80.55
2022-08-20T07:25:56.577Z,80.17
2022-08-20T07:28:32.520Z,79.55
2022-08-20T07:31:24.408Z,78.12
2022-08-20T07:33:58.888Z,77.60
2022-08-20T07:36:35.612Z,79.33
2022-08-20T07:39:10.418Z,79.42
2022-08-20T07:41:49.017Z,79.56
2022-08-20T07:44:31.443Z,79.26
2022-08-20T07:47:06.572Z,78.03
2022-08-20T07:49:41.635Z,76.73
2022-08-20T07:52:17.790Z,75.24
2022-08-20T07:54:52.200Z,75.29
2022-08-20T07:57:26.433Z,76.61
2022-08-20T08:00:00.959Z,75.79
2022-08-20T08:02:35.318Z,76.06
2022-08-20T08:05:10.781Z,75.62
2022-08-20T08:07:47.099Z,74.92
2022-08-20T08:10:24.489Z,75.02
2022-08-20T08:13:02.059Z,74.24
2022-08-20T08:15:43.048Z,73.99
2022-08-20T08:18:22.223Z,75.01
2022-08-20T08:20:57.973Z,75.52
2022-08-20T08:23:34.765Z,75.73
2022-08-20T08:26:09.168Z,74.47
2022-08-20T08:28:50.891Z,73.67
2022-08-20T08:31:26.002Z,73.54
2022-08-20T08:34:00.803Z,73.10
2022-08-20T08:36:35.406Z,73.11
2022-08-20T08:39:12.172Z,74.32
2022-08-20T08:41:49.971Z,74.41
2022-08-20T08:44:27.406Z,74.21
2022-08-20T08:47:04.624Z,74.28
2022-08-20T08:49:38.816Z,73.85
2022-08-20T08:52:18.939Z,74.31
2022-08-20T08:54:59.376Z,74.34
2022-08-20T08:57:34.433Z,74.04
2022-08-20T09:00:14.848Z,74.37
2022-08-20T09:03:00.128Z,75.04
2022-08-20T09:05:41.367Z,75.60
2022-08-20T09:08:19.527Z,74.65
2022-08-20T09:10:55.652Z,75.86
2022-08-20T09:13:30.132Z,77.71
2022-08-20T09:16:04.784Z,79.15
2022-08-20T09:18:39.731Z,80.45
2022-08-20T09:21:14.616Z,81.35
2022-08-20T09:23:49.135Z,81.16
2022-08-20T09:26:27.296Z,81.33
2022-08-20T09:29:03.873Z,79.63
2022-08-20T09:31:38.971Z,81.35
2022-08-20T09:34:13.889Z,81.79
2022-08-20T09:36:48.042Z,82.13
2022-08-20T09:39:22.588Z,81.84
2022-08-20T09:42:08.179Z,83.09
2022-08-20T09:44:43.116Z,81.93
2022-08-20T09:47:17.868Z,82.12
2022-08-20T09:49:52.610Z,82.47
2022-08-20T09:52:28.740Z,81.41
2022-08-20T09:55:08.704Z,79.73
2022-08-20T09:57:52.302Z,79.02
2022-08-20T10:00:27.050Z,83.78
2022-08-20T10:03:03.404Z,80.12
2022-08-20T10:05:37.541Z,83.30
2022-08-20T10:08:13.032Z,81.19
2022-08-20T10:10:47.179Z,80.70
2022-08-20T10:13:22.996Z,76.84
2022-08-20T10:15:57.961Z,76.66
2022-08-20T10:18:32.426Z,75.22
2022-08-20T10:21:11.172Z,73.77
2022-08-20T10:23:45.661Z,74.85
2022-08-20T10:26:19.798Z,73.82
2022-08-20T10:28:55.958Z,75.53
2022-08-20T10:31:30.219Z,75.61
2022-08-20T10:34:04.912Z,74.80
2022-08-20T10:36:43.852Z,74.15
2022-08-20T10:39:18.525Z,71.32
2022-08-20T10:41:52.624Z,70.83
2022-08-20T10:44:28.455Z,73.17
2022-08-20T10:47:15.185Z,72.77
2022-08-20T10:49:50.995Z,73.80
2022-08-20T10:52:26.261Z,72.46
2022-08-20T10:55:00.855Z,68.06
2022-08-20T10:57:35.183Z,68.05
2022-08-20T11:00:13.527Z,68.40
2022-08-20T11:02:48.006Z,68.17
2022-08-20T11:05:22.436Z,68.46
2022-08-20T11:07:56.955Z,70.72
2022-08-20T11:10:34.121Z,67.62
2022-08-20T11:13:09.184Z,69.37
2022-08-20T11:15:45.884Z,68.67
2022-08-20T11:18:20.391Z,68.09
2022-08-20T11:20:54.848Z,66.99
2022-08-20T11:23:29.070Z,66.14
2022-08-20T11:26:05.203Z,65.97
2022-08-20T11:28:39.625Z,67.20
2022-08-20T11:31:15.495Z,65.51
2022-08-20T11:33:49.631Z,65.11
2022-08-20T11:36:26.481Z,63.95
2022-08-20T11:39:00.691Z,66.22
2022-08-20T11:41:35.148Z,65.27
2022-08-20T11:44:20.828Z,65.15
2022-08-20T11:47:00.053Z,64.59
2022-08-20T11:49:35.750Z,64.15
2022-08-20T11:52:10.312Z,65.57
2022-08-20T11:54:44.697Z,66.13
2022-08-20T11:57:23.138Z,65.51
2022-08-20T11:59:58.956Z,64.98
2022-08-20T12:02:34.959Z,66.00
2022-08-20T12:05:12.277Z,66.66
2022-08-20T12:07:46.700Z,66.34
2022-08-20T12:10:23.161Z,65.73
2022-08-20T12:12:57.594Z,66.45
2022-08-20T12:15:32.226Z,65.29
2022-08-20T12:18:09.742Z,66.72
2022-08-20T12:20:44.136Z,66.94
2022-08-20T12:23:18.296Z,66.72
2022-08-20T12:25:52.746Z,66.86
2022-08-20T12:28:26.910Z,66.61
2022-08-20T12:31:01.399Z,65.46
2022-08-20T12:33:36.969Z,65.84
2022-08-20T12:36:11.593Z,65.91
2022-08-20T12:38:45.716Z,65.46
2022-08-20T12:41:20.227Z,65.09
2022-08-20T12:43:54.575Z,63.07
2022-08-20T12:46:29.036Z,64.13
2022-08-20T12:49:04.806Z,64.33
2022-08-20T12:51:39.194Z,64.87
2022-08-20T12:54:13.339Z,62.93
2022-08-20T12:56:48.195Z,65.11
2022-08-20T12:59:26.039Z,63.75
2022-08-20T13:02:14.142Z,65.53
2022-08-20T13:04:54.525Z,62.82
2022-08-20T13:07:30.214Z,62.73
2022-08-20T13:10:06.565Z,62.34
2022-08-20T13:12:41.235Z,61.32
2022-08-20T13:15:15.445Z,62.09
2022-08-20T13:17:53.027Z,61.38
2022-08-20T13:20:31.690Z,60.15
2022-08-20T13:23:09.035Z,60.05
2022-08-20T13:25:43.199Z,60.53
2022-08-20T13:28:17.638Z,60.15
2022-08-20T13:30:52.043Z,61.82
2022-08-20T13:33:26.727Z,59.75
2022-08-20T13:36:02.509Z,59.97
2022-08-20T13:38:37.473Z,58.85
2022-08-20T13:41:11.734Z,59.05
2022-08-20T13:43:46.164Z,58.14
2022-08-20T13:46:20.422Z,58.09
2022-08-20T13:48:54.899Z,58.01
2022-08-20T13:51:30.532Z,59.89
2022-08-20T13:54:05.481Z,57.20
2022-08-20T13:56:44.887Z,55.12
2022-08-20T13:59:21.207Z,55.77
2022-08-20T14:01:55.368Z,55.83
2022-08-20T14:04:29.979Z,56.10
2022-08-20T14:07:13.165Z,55.01
2022-08-20T14:09:50.412Z,55.91
2022-08-20T14:12:25.485Z,56.80
2022-08-20T14:14:59.927Z,57.52
2022-08-20T14:17:36.724Z,56.55
2022-08-20T14:20:14.777Z,57.33
2022-08-20T14:22:50.612Z,58.18
2022-08-20T14:25:26.554Z,56.74
2022-08-20T14:28:09.908Z,55.12
2022-08-20T14:30:44.428Z,55.52
2022-08-20T14:33:18.688Z,56.18
2022-08-20T14:35:53.772Z,55.46
2022-08-20T14:38:29.516Z,57.39
2022-08-20T14:41:03.976Z,56.91
2022-08-20T14:43:38.168Z,57.96
2022-08-20T14:46:13.692Z,60.89
2022-08-20T14:48:53.273Z,57.81
2022-08-20T14:51:28.041Z,59.57
2022-08-20T14:54:03.653Z,59.63
2022-08-20T14:56:38.367Z,59.04
2022-08-20T14:59:12.883Z,57.67
2022-08-20T15:01:47.361Z,58.90
2022-08-20T15:04:21.571Z,57.09
2022-08-20T15:06:55.993Z,59.24
2022-08-20T15:09:37.930Z,59.22
2022-08-20T15:12:12.356Z,59.35
2022-08-20T15:14:47.989Z,59.57
2022-08-20T15:17:25.858Z,58.67
2022-08-20T15:20:02.992Z,56.85
2022-08-20T15:22:37.551Z,56.80
2022-08-20T15:25:16.615Z,59.01
2022-08-20T15:27:51.923Z,60.14
2022-08-20T15:30:26.393Z,61.47
2022-08-20T15:33:01.343Z,61.38
2022-08-20T15:35:36.172Z,61.58
2022-08-20T15:38:10.627Z,61.75
2022-08-20T15:40:46.615Z,61.83
2022-08-20T15:43:21.065Z,62.21
2022-08-20T15:45:55.689Z,60.71
2022-08-20T15:48:34.579Z,62.40
2022-08-20T15:51:22.092Z,61.79
2022-08-20T15:54:00.446Z,63.06
2022-08-20T15:56:50.757Z,61.29
2022-08-20T15:59:48.860Z,61.83
2022-08-20T16:02:46.662Z,63.95
2022-08-20T16:05:29.046Z,63.96
2022-08-20T16:08:15.448Z,63.47
2022-08-20T16:11:01.930Z,63.26
2022-08-20T16:13:40.469Z,62.48
2022-08-20T16:16:19.239Z,64.41
2022-08-20T16:18:55.279Z,62.74
2022-08-20T16:21:32.801Z,62.79
2022-08-20T16:24:08.587Z,62.98
2022-08-20T16:27:02.730Z,64.27
2022-08-20T16:29:49.775Z,63.37
2022-08-20T16:32:35.881Z,64.52
2022-08-20T16:35:29.860Z,64.55
2022-08-20T16:38:21.019Z,64.68
2022-08-20T16:41:00.894Z,65.80
2022-08-20T16:43:38.280Z,66.05
2022-08-20T16:46:19.729Z,66.54
2022-08-20T16:48:58.244Z,66.22
2022-08-20T16:51:37.724Z,66.25
2022-08-20T16:54:13.624Z,66.09
2022-08-20T16:56:50.230Z,66.19
2022-08-20T16:59:28.324Z,66.04
2022-08-20T17:02:10.093Z,66.52
2022-08-20T17:04:50.496Z,66.48
2022-08-20T17:07:46.219Z,66.46
2022-08-20T17:10:24.373Z,66.31
2022-08-20T17:13:01.653Z,65.79
2022-08-20T17:15:37.364Z,66.14
2022-08-20T17:18:22.100Z,66.20
2022-08-20T17:21:01.822Z,66.75
2022-08-20T17:23:54.610Z,66.65
2022-08-20T17:26:35.252Z,66.75
2022-08-20T17:29:14.965Z,66.59
2022-08-20T17:31:50.495Z,66.69
2022-08-20T17:34:28.637Z,66.78
2022-08-20T17:37:09.576Z,66.63
2022-08-20T17:39:48.697Z,66.58
2022-08-20T17:42:26.006Z,66.66
2022-08-20T17:45:09.290Z,67.15
2022-08-20T17:47:45.076Z,67.82
2022-08-20T17:50:31.046Z,67.68
2022-08-20T17:53:17.866Z,68.12
2022-08-20T17:56:00.711Z,69.21
2022-08-20T17:58:54.386Z,69.90
2022-08-20T18:01:30.294Z,68.66
2022-08-20T18:04:05.217Z,68.82
2022-08-20T18:06:50.238Z,69.02
2022-08-20T18:09:30.246Z,69.52
2022-08-20T18:12:33.329Z,69.70
2022-08-20T18:15:11.798Z,69.84
2022-08-20T18:18:25.504Z,70.06
2022-08-20T18:21:27.326Z,70.57
2022-08-20T18:24:08.123Z,70.80
2022-08-20T18:26:48.074Z,70.88
2022-08-20T18:29:27.649Z,70.96
2022-08-20T18:32:03.583Z,70.73
2022-08-20T18:34:42.184Z,70.64
2022-08-20T18:37:25.433Z,70.09
2022-08-20T18:40:15.536Z,69.47
2022-08-20T18:42:50.151Z,70.50
2022-08-20T18:45:33.063Z,69.81
2022-08-20T18:48:08.469Z,72.18
2022-08-20T18:50:49.010Z,71.22
2022-08-20T18:53:33.473Z,72.18
2022-08-20T18:56:13.674Z,72.17
2022-08-20T18:58:55.759Z,72.31
2022-08-20T19:01:35.321Z,72.13
2022-08-20T19:04:22.572Z,72.21
2022-08-20T19:07:00.205Z,72.18
2022-08-20T19:09:53.516Z,71.80
2022-08-20T19:13:16.346Z,71.02
2022-08-20T19:15:54.418Z,72.93
2022-08-20T19:18:35.068Z,73.74
2022-08-20T19:21:15.773Z,73.60
2022-08-20T19:23:55.203Z,73.66
2022-08-20T19:26:32.780Z,75.06
2022-08-20T19:29:12.313Z,75.04
2022-08-20T19:31:48.425Z,75.24
2022-08-20T19:34:25.825Z,75.78
2022-08-20T19:37:27.938Z,75.97
2022-08-20T19:39:57.874Z,76.58
2022-08-20T19:42:37.549Z,77.00
2022-08-20T19:45:19.879Z,74.74
2022-08-20T19:48:09.596Z,74.67
2022-08-20T19:50:51.327Z,75.18
2022-08-20T19:53:30.667Z,76.11
2022-08-20T19:56:11.176Z,76.20
2022-08-20T19:58:46.106Z,75.22
2022-08-20T20:01:22.851Z,74.67
2022-08-20T20:04:00.507Z,74.88
2022-08-20T20:06:38.557Z,75.56
2022-08-20T20:09:18.425Z,75.18
2022-08-20T20:11:56.214Z,74.37
2022-08-20T20:14:33.734Z,74.72
2022-08-20T20:17:14.768Z,75.01
2022-08-20T20:19:53.467Z,74.98
2022-08-20T20:22:29.896Z,75.27
2022-08-20T20:25:21.517Z,75.11
2022-08-20T20:27:59.679Z,74.42
2022-08-20T20:30:35.642Z,75.66
2022-08-20T20:33:18.415Z,75.73
2022-08-20T20:36:04.597Z,74.35
2022-08-20T20:38:56.056Z,74.54
2022-08-20T20:41:31.269Z,75.10
2022-08-20T20:44:08.610Z,75.18
2022-08-20T20:46:47.990Z,75.54
2022-08-20T20:49:26.728Z,74.44
2022-08-20T20:52:04.106Z,73.07
2022-08-20T20:54:42.111Z,73.49
2022-08-20T20:57:38.405Z,74.22
2022-08-20T21:00:17.145Z,74.05
2022-08-20T21:02:51.745Z,75.23
2022-08-20T21:05:28.856Z,74.95
2022-08-20T21:08:07.259Z,74.80
2022-08-20T21:10:43.404Z,74.55
2022-08-20T21:13:18.000Z,75.52
2022-08-20T21:15:52.262Z,74.46
2022-08-20T21:18:26.948Z,75.03
2022-08-20T21:21:02.594Z,74.28
2022-08-20T21:23:40.006Z,74.25
2022-08-20T21:26:16.163Z,73.25
2022-08-20T21:28:50.641Z,73.29
2022-08-20T21:31:27.294Z,73.78
2022-08-20T21:34:02.034Z,72.42
2022-08-20T21:36:37.925Z,73.63
2022-08-20T21:39:12.844Z,74.44
2022-08-20T21:41:47.444Z,74.58
2022-08-20T21:44:24.738Z,74.92
2022-08-20T21:47:00.466Z,73.56
2022-08-20T21:49:34.879Z,74.54
2022-08-20T21:52:10.419Z,73.23
2022-08-20T21:54:44.978Z,73.47
2022-08-20T21:57:21.386Z,73.43
2022-08-20T21:59:57.349Z,73.89
2022-08-20T22:02:32.298Z,73.38
2022-08-20T22:05:07.769Z,73.35
2022-08-20T22:07:44.698Z,72.99
2022-08-20T22:10:19.373Z,72.76
2022-08-20T22:12:53.476Z,74.46
2022-08-20T22:15:27.905Z,72.95
2022-08-20T22:18:02.430Z,74.69
2022-08-20T22:20:37.164Z,74.40
2022-08-20T22:23:13.504Z,74.27
2022-08-20T22:25:47.924Z,74.83
2022-08-20T22:28:22.316Z,73.34
2022-08-20T22:30:56.945Z,74.34
2022-08-20T22:33:32.941Z,73.83
2022-08-20T22:36:08.444Z,73.90
2022-08-20T22:38:43.998Z,72.68
2022-08-20T22:41:22.435Z,72.39
2022-08-20T22:43:57.421Z,74.34
2022-08-20T22:46:35.392Z,72.34
2022-08-20T22:49:13.111Z,74.91
2022-08-20T22:51:47.664Z,75.24
2022-08-20T22:54:25.095Z,75.77
2022-08-20T22:56:59.455Z,75.37
2022-08-20T22:59:33.970Z,75.00
2022-08-20T23:02:22.062Z,76.34
2022-08-20T23:04:56.194Z,76.15
2022-08-20T23:07:30.853Z,75.50
2022-08-20T23:10:07.225Z,75.32
2022-08-20T23:12:41.968Z,74.46
2022-08-20T23:15:16.486Z,76.13
2022-08-20T23:17:51.526Z,75.50
2022-08-20T23:20:25.741Z,75.43
2022-08-20T23:23:00.211Z,75.52
2022-08-20T23:25:36.626Z,75.42
2022-08-20T23:28:11.357Z,74.31
2022-08-20T23:30:45.514Z,74.49
2022-08-20T23:33:20.571Z,74.07
2022-08-20T23:35:54.631Z,74.76
2022-08-20T23:38:29.183Z,74.92
2022-08-20T23:41:04.716Z,75.09
2022-08-20T23:43:39.670Z,75.01
2022-08-20T23:46:14.250Z,74.63
2022-08-20T23:48:48.684Z,75.27
2022-08-20T23:51:22.993Z,75.42
2022-08-20T23:53:57.445Z,74.82
2022-08-20T23:56:33.006Z,74.81
2022-08-20T23:59:07.416Z,75.76
